sensor_id;sensor_type;location;lat;lon;timestamp;P1;durP1;ratioP1;P2;durP2;ratioP2
9860;SDS011;4969;52.304;4.968;2023-07-31T00:02:17;5.35;;;2.60;;
9860;SDS011;4969;52.304;4.968;2023-07-31T00:04:44;8.98;;;2.85;;
9860;SDS011;4969;52.304;4.968;2023-07-31T00:07:11;12.05;;;3.13;;
9860;SDS011;4969;52.304;4.968;2023-07-31T00:09:37;8.25;;;3.00;;
9860;SDS011;4969;52.304;4.968;2023-07-31T00:12:06;7.85;;;3.67;;
9860;SDS011;4969;52.304;4.968;2023-07-31T00:14:33;10.35;;;3.38;;
9860;SDS011;4969;52.304;4.968;2023-07-31T00:16:59;5.35;;;3.28;;
9860;SDS011;4969;52.304;4.968;2023-07-31T00:19:26;6.68;;;3.45;;
9860;SDS011;4969;52.304;4.968;2023-07-31T00:21:52;9.27;;;3.30;;
9860;SDS011;4969;52.304;4.968;2023-07-31T00:24:19;9.93;;;3.55;;
9860;SDS011;4969;52.304;4.968;2023-07-31T00:26:46;8.55;;;3.72;;
9860;SDS011;4969;52.304;4.968;2023-07-31T00:29:13;6.22;;;3.13;;
9860;SDS011;4969;52.304;4.968;2023-07-31T00:31:40;6.72;;;3.33;;
9860;SDS011;4969;52.304;4.968;2023-07-31T00:34:07;8.48;;;3.30;;
9860;SDS011;4969;52.304;4.968;2023-07-31T00:36:33;5.00;;;2.80;;
9860;SDS011;4969;52.304;4.968;2023-07-31T00:39:00;3.75;;;2.67;;
9860;SDS011;4969;52.304;4.968;2023-07-31T00:41:26;4.45;;;2.90;;
9860;SDS011;4969;52.304;4.968;2023-07-31T00:43:53;4.68;;;2.83;;
9860;SDS011;4969;52.304;4.968;2023-07-31T00:46:21;6.93;;;2.90;;
9860;SDS011;4969;52.304;4.968;2023-07-31T00:48:48;3.90;;;2.58;;
9860;SDS011;4969;52.304;4.968;2023-07-31T00:51:15;4.80;;;2.88;;
9860;SDS011;4969;52.304;4.968;2023-07-31T00:53:42;4.78;;;2.50;;
9860;SDS011;4969;52.304;4.968;2023-07-31T00:56:09;8.57;;;3.67;;
9860;SDS011;4969;52.304;4.968;2023-07-31T00:58:37;9.88;;;4.00;;
9860;SDS011;4969;52.304;4.968;2023-07-31T01:01:03;9.57;;;3.95;;
9860;SDS011;4969;52.304;4.968;2023-07-31T01:03:31;7.43;;;3.15;;
9860;SDS011;4969;52.304;4.968;2023-07-31T01:06:01;8.77;;;4.07;;
9860;SDS011;4969;52.304;4.968;2023-07-31T01:08:39;10.25;;;4.40;;
9860;SDS011;4969;52.304;4.968;2023-07-31T01:11:10;9.15;;;4.20;;
9860;SDS011;4969;52.304;4.968;2023-07-31T01:13:42;10.35;;;3.90;;
9860;SDS011;4969;52.304;4.968;2023-07-31T01:16:09;9.50;;;4.43;;
9860;SDS011;4969;52.304;4.968;2023-07-31T01:18:37;8.60;;;4.72;;
9860;SDS011;4969;52.304;4.968;2023-07-31T01:21:06;13.68;;;5.43;;
9860;SDS011;4969;52.304;4.968;2023-07-31T01:23:51;10.50;;;4.32;;
9860;SDS011;4969;52.304;4.968;2023-07-31T01:26:36;12.88;;;5.05;;
9860;SDS011;4969;52.304;4.968;2023-07-31T01:29:07;10.38;;;5.20;;
9860;SDS011;4969;52.304;4.968;2023-07-31T01:31:41;14.75;;;6.05;;
9860;SDS011;4969;52.304;4.968;2023-07-31T01:34:08;10.80;;;4.30;;
9860;SDS011;4969;52.304;4.968;2023-07-31T01:36:37;12.63;;;5.70;;
9860;SDS011;4969;52.304;4.968;2023-07-31T01:39:04;12.18;;;4.88;;
9860;SDS011;4969;52.304;4.968;2023-07-31T01:41:30;15.35;;;5.63;;
9860;SDS011;4969;52.304;4.968;2023-07-31T01:43:58;12.43;;;5.57;;
9860;SDS011;4969;52.304;4.968;2023-07-31T01:46:25;13.45;;;5.55;;
9860;SDS011;4969;52.304;4.968;2023-07-31T01:48:51;16.08;;;5.57;;
9860;SDS011;4969;52.304;4.968;2023-07-31T01:51:18;18.40;;;7.15;;
9860;SDS011;4969;52.304;4.968;2023-07-31T01:53:45;12.35;;;5.15;;
9860;SDS011;4969;52.304;4.968;2023-07-31T01:56:11;13.68;;;6.45;;
9860;SDS011;4969;52.304;4.968;2023-07-31T01:58:38;13.07;;;6.13;;
9860;SDS011;4969;52.304;4.968;2023-07-31T02:01:06;17.90;;;6.78;;
9860;SDS011;4969;52.304;4.968;2023-07-31T02:03:32;21.73;;;7.07;;
9860;SDS011;4969;52.304;4.968;2023-07-31T02:05:59;15.70;;;6.90;;
9860;SDS011;4969;52.304;4.968;2023-07-31T02:08:26;19.27;;;7.35;;
9860;SDS011;4969;52.304;4.968;2023-07-31T02:10:53;18.15;;;7.10;;
9860;SDS011;4969;52.304;4.968;2023-07-31T02:13:20;21.08;;;7.10;;
9860;SDS011;4969;52.304;4.968;2023-07-31T02:15:46;17.20;;;6.43;;
9860;SDS011;4969;52.304;4.968;2023-07-31T02:18:15;17.75;;;7.95;;
9860;SDS011;4969;52.304;4.968;2023-07-31T02:20:41;18.63;;;7.75;;
9860;SDS011;4969;52.304;4.968;2023-07-31T02:23:08;20.00;;;7.85;;
9860;SDS011;4969;52.304;4.968;2023-07-31T02:25:35;17.48;;;7.82;;
9860;SDS011;4969;52.304;4.968;2023-07-31T02:28:01;22.30;;;7.30;;
9860;SDS011;4969;52.304;4.968;2023-07-31T02:30:28;20.73;;;7.63;;
9860;SDS011;4969;52.304;4.968;2023-07-31T02:32:54;22.90;;;7.35;;
9860;SDS011;4969;52.304;4.968;2023-07-31T02:35:22;17.13;;;7.60;;
9860;SDS011;4969;52.304;4.968;2023-07-31T02:37:49;18.70;;;8.10;;
9860;SDS011;4969;52.304;4.968;2023-07-31T02:40:16;17.73;;;6.95;;
9860;SDS011;4969;52.304;4.968;2023-07-31T02:42:43;17.90;;;7.10;;
9860;SDS011;4969;52.304;4.968;2023-07-31T02:45:09;19.77;;;7.50;;
9860;SDS011;4969;52.304;4.968;2023-07-31T02:47:36;16.85;;;6.68;;
9860;SDS011;4969;52.304;4.968;2023-07-31T02:50:03;17.15;;;7.32;;
9860;SDS011;4969;52.304;4.968;2023-07-31T02:52:31;20.27;;;7.72;;
9860;SDS011;4969;52.304;4.968;2023-07-31T02:54:58;18.55;;;7.03;;
9860;SDS011;4969;52.304;4.968;2023-07-31T02:57:24;13.02;;;6.32;;
9860;SDS011;4969;52.304;4.968;2023-07-31T02:59:51;19.05;;;7.80;;
9860;SDS011;4969;52.304;4.968;2023-07-31T03:02:18;20.45;;;7.40;;
9860;SDS011;4969;52.304;4.968;2023-07-31T03:04:44;16.75;;;7.43;;
9860;SDS011;4969;52.304;4.968;2023-07-31T03:07:11;17.85;;;7.32;;
9860;SDS011;4969;52.304;4.968;2023-07-31T03:09:39;15.88;;;6.90;;
9860;SDS011;4969;52.304;4.968;2023-07-31T03:12:06;22.42;;;7.50;;
9860;SDS011;4969;52.304;4.968;2023-07-31T03:14:33;16.42;;;6.80;;
9860;SDS011;4969;52.304;4.968;2023-07-31T03:17:00;18.35;;;7.28;;
9860;SDS011;4969;52.304;4.968;2023-07-31T03:19:26;20.73;;;7.53;;
9860;SDS011;4969;52.304;4.968;2023-07-31T03:21:56;17.55;;;6.65;;
9860;SDS011;4969;52.304;4.968;2023-07-31T03:24:22;17.98;;;7.03;;
9860;SDS011;4969;52.304;4.968;2023-07-31T03:26:50;21.15;;;7.65;;
9860;SDS011;4969;52.304;4.968;2023-07-31T03:29:17;18.83;;;7.00;;
9860;SDS011;4969;52.304;4.968;2023-07-31T03:31:43;22.17;;;8.18;;
9860;SDS011;4969;52.304;4.968;2023-07-31T03:34:10;19.80;;;8.07;;
9860;SDS011;4969;52.304;4.968;2023-07-31T03:36:37;15.80;;;7.00;;
9860;SDS011;4969;52.304;4.968;2023-07-31T03:39:03;20.55;;;7.03;;
9860;SDS011;4969;52.304;4.968;2023-07-31T03:41:30;25.00;;;8.07;;
9860;SDS011;4969;52.304;4.968;2023-07-31T03:43:58;17.45;;;7.40;;
9860;SDS011;4969;52.304;4.968;2023-07-31T03:46:24;16.38;;;6.63;;
9860;SDS011;4969;52.304;4.968;2023-07-31T03:48:51;22.38;;;8.68;;
9860;SDS011;4969;52.304;4.968;2023-07-31T03:51:18;21.63;;;7.82;;
9860;SDS011;4969;52.304;4.968;2023-07-31T03:53:44;19.45;;;6.90;;
9860;SDS011;4969;52.304;4.968;2023-07-31T03:56:11;19.48;;;7.22;;
9860;SDS011;4969;52.304;4.968;2023-07-31T03:58:38;19.42;;;7.15;;
9860;SDS011;4969;52.304;4.968;2023-07-31T04:01:05;19.77;;;6.82;;
9860;SDS011;4969;52.304;4.968;2023-07-31T04:03:32;16.73;;;6.68;;
9860;SDS011;4969;52.304;4.968;2023-07-31T04:05:59;14.85;;;6.43;;
9860;SDS011;4969;52.304;4.968;2023-07-31T04:08:25;18.77;;;7.45;;
9860;SDS011;4969;52.304;4.968;2023-07-31T04:10:52;15.98;;;7.25;;
9860;SDS011;4969;52.304;4.968;2023-07-31T04:13:18;18.92;;;7.22;;
9860;SDS011;4969;52.304;4.968;2023-07-31T04:15:47;12.45;;;6.22;;
9860;SDS011;4969;52.304;4.968;2023-07-31T04:18:16;14.23;;;6.85;;
9860;SDS011;4969;52.304;4.968;2023-07-31T04:20:43;18.88;;;7.40;;
9860;SDS011;4969;52.304;4.968;2023-07-31T04:23:10;16.38;;;7.10;;
9860;SDS011;4969;52.304;4.968;2023-07-31T04:25:37;19.88;;;7.35;;
9860;SDS011;4969;52.304;4.968;2023-07-31T04:28:03;18.40;;;7.25;;
9860;SDS011;4969;52.304;4.968;2023-07-31T04:30:30;20.20;;;7.70;;
9860;SDS011;4969;52.304;4.968;2023-07-31T04:32:57;17.42;;;6.85;;
9860;SDS011;4969;52.304;4.968;2023-07-31T04:35:25;15.38;;;6.47;;
9860;SDS011;4969;52.304;4.968;2023-07-31T04:37:51;15.88;;;6.63;;
9860;SDS011;4969;52.304;4.968;2023-07-31T04:40:18;15.30;;;6.28;;
9860;SDS011;4969;52.304;4.968;2023-07-31T04:42:44;16.95;;;6.03;;
9860;SDS011;4969;52.304;4.968;2023-07-31T04:45:11;11.85;;;6.10;;
9860;SDS011;4969;52.304;4.968;2023-07-31T04:47:38;16.60;;;6.35;;
9860;SDS011;4969;52.304;4.968;2023-07-31T04:50:05;15.05;;;5.95;;
9860;SDS011;4969;52.304;4.968;2023-07-31T04:52:33;17.55;;;6.22;;
9860;SDS011;4969;52.304;4.968;2023-07-31T04:55:00;11.95;;;5.57;;
9860;SDS011;4969;52.304;4.968;2023-07-31T04:57:26;12.75;;;5.97;;
9860;SDS011;4969;52.304;4.968;2023-07-31T04:59:52;15.00;;;6.30;;
9860;SDS011;4969;52.304;4.968;2023-07-31T05:02:19;9.90;;;5.15;;
9860;SDS011;4969;52.304;4.968;2023-07-31T05:04:45;13.38;;;5.80;;
9860;SDS011;4969;52.304;4.968;2023-07-31T05:07:12;8.90;;;5.13;;
9860;SDS011;4969;52.304;4.968;2023-07-31T05:09:40;11.95;;;5.20;;
9860;SDS011;4969;52.304;4.968;2023-07-31T05:12:07;11.30;;;4.50;;
9860;SDS011;4969;52.304;4.968;2023-07-31T05:14:34;7.00;;;4.03;;
9860;SDS011;4969;52.304;4.968;2023-07-31T05:17:00;4.60;;;3.38;;
9860;SDS011;4969;52.304;4.968;2023-07-31T05:19:27;3.22;;;2.90;;
9860;SDS011;4969;52.304;4.968;2023-07-31T05:21:54;3.83;;;3.35;;
9860;SDS011;4969;52.304;4.968;2023-07-31T05:24:20;5.82;;;3.40;;
9860;SDS011;4969;52.304;4.968;2023-07-31T05:26:48;4.32;;;2.92;;
9860;SDS011;4969;52.304;4.968;2023-07-31T05:29:15;4.22;;;3.33;;
9860;SDS011;4969;52.304;4.968;2023-07-31T05:31:41;3.90;;;3.00;;
9860;SDS011;4969;52.304;4.968;2023-07-31T05:34:08;2.95;;;2.60;;
9860;SDS011;4969;52.304;4.968;2023-07-31T05:36:35;3.90;;;2.65;;
9860;SDS011;4969;52.304;4.968;2023-07-31T05:39:01;4.55;;;2.67;;
9860;SDS011;4969;52.304;4.968;2023-07-31T05:41:32;5.82;;;2.88;;
9860;SDS011;4969;52.304;4.968;2023-07-31T05:44:00;2.72;;;2.53;;
9860;SDS011;4969;52.304;4.968;2023-07-31T05:46:27;3.03;;;1.90;;
9860;SDS011;4969;52.304;4.968;2023-07-31T05:48:54;2.50;;;2.30;;
9860;SDS011;4969;52.304;4.968;2023-07-31T05:51:20;2.65;;;2.25;;
9860;SDS011;4969;52.304;4.968;2023-07-31T05:53:47;2.47;;;2.08;;
9860;SDS011;4969;52.304;4.968;2023-07-31T05:56:14;2.10;;;2.00;;
9860;SDS011;4969;52.304;4.968;2023-07-31T05:58:40;2.58;;;2.20;;
9860;SDS011;4969;52.304;4.968;2023-07-31T06:01:08;2.53;;;2.17;;
9860;SDS011;4969;52.304;4.968;2023-07-31T06:03:35;2.35;;;2.13;;
9860;SDS011;4969;52.304;4.968;2023-07-31T06:06:01;2.88;;;2.30;;
9860;SDS011;4969;52.304;4.968;2023-07-31T06:08:28;2.58;;;2.30;;
9860;SDS011;4969;52.304;4.968;2023-07-31T06:10:55;2.50;;;2.30;;
9860;SDS011;4969;52.304;4.968;2023-07-31T06:13:22;4.32;;;2.30;;
9860;SDS011;4969;52.304;4.968;2023-07-31T06:15:48;2.35;;;2.15;;
9860;SDS011;4969;52.304;4.968;2023-07-31T06:18:17;2.40;;;2.20;;
9860;SDS011;4969;52.304;4.968;2023-07-31T06:20:43;2.80;;;2.47;;
9860;SDS011;4969;52.304;4.968;2023-07-31T06:23:10;2.72;;;2.35;;
9860;SDS011;4969;52.304;4.968;2023-07-31T06:25:37;3.00;;;2.00;;
9860;SDS011;4969;52.304;4.968;2023-07-31T06:28:03;3.13;;;2.10;;
9860;SDS011;4969;52.304;4.968;2023-07-31T06:30:30;2.20;;;2.00;;
9860;SDS011;4969;52.304;4.968;2023-07-31T06:32:57;2.22;;;2.00;;
9860;SDS011;4969;52.304;4.968;2023-07-31T06:35:24;2.17;;;1.98;;
9860;SDS011;4969;52.304;4.968;2023-07-31T06:37:51;3.20;;;1.83;;
9860;SDS011;4969;52.304;4.968;2023-07-31T06:40:18;2.80;;;1.98;;
9860;SDS011;4969;52.304;4.968;2023-07-31T06:42:45;1.60;;;1.50;;
9860;SDS011;4969;52.304;4.968;2023-07-31T06:45:11;2.20;;;1.90;;
9860;SDS011;4969;52.304;4.968;2023-07-31T06:47:38;3.00;;;1.85;;
9860;SDS011;4969;52.304;4.968;2023-07-31T06:50:05;2.60;;;1.77;;
9860;SDS011;4969;52.304;4.968;2023-07-31T06:52:33;2.22;;;1.85;;
9860;SDS011;4969;52.304;4.968;2023-07-31T06:55:00;1.92;;;1.67;;
9860;SDS011;4969;52.304;4.968;2023-07-31T06:57:28;2.10;;;1.75;;
9860;SDS011;4969;52.304;4.968;2023-07-31T06:59:55;2.45;;;1.60;;
9860;SDS011;4969;52.304;4.968;2023-07-31T07:02:21;1.35;;;1.25;;
9860;SDS011;4969;52.304;4.968;2023-07-31T07:04:48;1.75;;;1.45;;
9860;SDS011;4969;52.304;4.968;2023-07-31T07:07:15;1.55;;;1.13;;
9860;SDS011;4969;52.304;4.968;2023-07-31T07:09:43;1.10;;;1.10;;
9860;SDS011;4969;52.304;4.968;2023-07-31T07:12:10;2.45;;;1.20;;
9860;SDS011;4969;52.304;4.968;2023-07-31T07:14:36;1.15;;;1.05;;
9860;SDS011;4969;52.304;4.968;2023-07-31T07:17:03;1.25;;;0.98;;
9860;SDS011;4969;52.304;4.968;2023-07-31T07:19:30;1.17;;;1.15;;
9860;SDS011;4969;52.304;4.968;2023-07-31T07:21:56;1.35;;;1.25;;
9860;SDS011;4969;52.304;4.968;2023-07-31T07:24:24;1.70;;;1.60;;
9860;SDS011;4969;52.304;4.968;2023-07-31T07:26:52;1.83;;;1.17;;
9860;SDS011;4969;52.304;4.968;2023-07-31T07:29:19;1.33;;;1.23;;
9860;SDS011;4969;52.304;4.968;2023-07-31T07:31:46;1.13;;;1.10;;
9860;SDS011;4969;52.304;4.968;2023-07-31T07:34:12;1.48;;;1.38;;
9860;SDS011;4969;52.304;4.968;2023-07-31T07:36:39;1.65;;;1.08;;
9860;SDS011;4969;52.304;4.968;2023-07-31T07:39:05;4.32;;;1.30;;
9860;SDS011;4969;52.304;4.968;2023-07-31T07:41:32;1.92;;;1.25;;
9860;SDS011;4969;52.304;4.968;2023-07-31T07:44:00;2.22;;;1.20;;
9860;SDS011;4969;52.304;4.968;2023-07-31T07:46:27;2.35;;;1.10;;
9860;SDS011;4969;52.304;4.968;2023-07-31T07:48:54;0.50;;;0.50;;
9860;SDS011;4969;52.304;4.968;2023-07-31T07:51:21;0.60;;;0.60;;
9860;SDS011;4969;52.304;4.968;2023-07-31T07:53:47;2.45;;;1.00;;
9860;SDS011;4969;52.304;4.968;2023-07-31T07:56:14;0.82;;;0.70;;
9860;SDS011;4969;52.304;4.968;2023-07-31T07:58:40;2.58;;;0.73;;
9860;SDS011;4969;52.304;4.968;2023-07-31T08:01:08;0.70;;;0.70;;
9860;SDS011;4969;52.304;4.968;2023-07-31T08:03:35;2.78;;;0.80;;
9860;SDS011;4969;52.304;4.968;2023-07-31T08:06:02;0.73;;;0.52;;
9860;SDS011;4969;52.304;4.968;2023-07-31T08:08:28;1.83;;;0.80;;
9860;SDS011;4969;52.304;4.968;2023-07-31T08:10:55;0.90;;;0.60;;
9860;SDS011;4969;52.304;4.968;2023-07-31T08:13:21;1.35;;;0.47;;
9860;SDS011;4969;52.304;4.968;2023-07-31T08:15:48;0.68;;;0.68;;
9860;SDS011;4969;52.304;4.968;2023-07-31T08:18:16;1.20;;;0.60;;
9860;SDS011;4969;52.304;4.968;2023-07-31T08:20:43;0.35;;;0.35;;
9860;SDS011;4969;52.304;4.968;2023-07-31T08:23:09;0.57;;;0.57;;
9860;SDS011;4969;52.304;4.968;2023-07-31T08:25:36;0.60;;;0.60;;
9860;SDS011;4969;52.304;4.968;2023-07-31T08:28:03;0.80;;;0.70;;
9860;SDS011;4969;52.304;4.968;2023-07-31T08:30:29;0.98;;;0.98;;
9860;SDS011;4969;52.304;4.968;2023-07-31T08:32:56;0.88;;;0.88;;
9860;SDS011;4969;52.304;4.968;2023-07-31T08:35:25;0.57;;;0.57;;
9860;SDS011;4969;52.304;4.968;2023-07-31T08:37:53;0.75;;;0.40;;
9860;SDS011;4969;52.304;4.968;2023-07-31T08:40:19;1.08;;;0.70;;
9860;SDS011;4969;52.304;4.968;2023-07-31T08:42:47;0.70;;;0.70;;
9860;SDS011;4969;52.304;4.968;2023-07-31T08:45:15;1.92;;;0.70;;
9860;SDS011;4969;52.304;4.968;2023-07-31T08:47:43;0.70;;;0.70;;
9860;SDS011;4969;52.304;4.968;2023-07-31T08:50:11;1.95;;;1.10;;
9860;SDS011;4969;52.304;4.968;2023-07-31T08:52:40;1.20;;;1.10;;
9860;SDS011;4969;52.304;4.968;2023-07-31T08:55:07;0.98;;;0.95;;
9860;SDS011;4969;52.304;4.968;2023-07-31T08:57:35;0.80;;;0.80;;
9860;SDS011;4969;52.304;4.968;2023-07-31T09:00:03;0.70;;;0.70;;
9860;SDS011;4969;52.304;4.968;2023-07-31T09:02:34;2.13;;;1.10;;
9860;SDS011;4969;52.304;4.968;2023-07-31T09:05:04;1.20;;;1.10;;
9860;SDS011;4969;52.304;4.968;2023-07-31T09:07:32;1.60;;;1.42;;
9860;SDS011;4969;52.304;4.968;2023-07-31T09:10:02;3.22;;;1.70;;
9860;SDS011;4969;52.304;4.968;2023-07-31T09:12:29;3.30;;;1.75;;
9860;SDS011;4969;52.304;4.968;2023-07-31T09:14:56;4.85;;;1.85;;
9860;SDS011;4969;52.304;4.968;2023-07-31T09:17:28;5.18;;;2.25;;
9860;SDS011;4969;52.304;4.968;2023-07-31T09:19:55;6.05;;;2.08;;
9860;SDS011;4969;52.304;4.968;2023-07-31T09:22:28;7.15;;;2.38;;
9860;SDS011;4969;52.304;4.968;2023-07-31T09:25:01;2.72;;;1.83;;
9860;SDS011;4969;52.304;4.968;2023-07-31T09:27:47;6.20;;;2.28;;
9860;SDS011;4969;52.304;4.968;2023-07-31T09:30:15;6.43;;;1.98;;
9860;SDS011;4969;52.304;4.968;2023-07-31T09:32:42;14.93;;;2.08;;
9860;SDS011;4969;52.304;4.968;2023-07-31T09:35:18;5.15;;;2.20;;
9860;SDS011;4969;52.304;4.968;2023-07-31T09:37:49;4.30;;;1.85;;
9860;SDS011;4969;52.304;4.968;2023-07-31T09:40:29;5.00;;;1.70;;
9860;SDS011;4969;52.304;4.968;2023-07-31T09:42:59;4.40;;;2.00;;
9860;SDS011;4969;52.304;4.968;2023-07-31T09:45:28;4.80;;;2.40;;
9860;SDS011;4969;52.304;4.968;2023-07-31T09:47:55;7.32;;;3.08;;
9860;SDS011;4969;52.304;4.968;2023-07-31T09:50:23;6.05;;;2.90;;
9860;SDS011;4969;52.304;4.968;2023-07-31T09:52:50;5.97;;;2.60;;
9860;SDS011;4969;52.304;4.968;2023-07-31T09:55:18;5.65;;;2.47;;
9860;SDS011;4969;52.304;4.968;2023-07-31T09:57:47;7.75;;;3.00;;
9860;SDS011;4969;52.304;4.968;2023-07-31T10:00:15;4.18;;;2.40;;
9860;SDS011;4969;52.304;4.968;2023-07-31T10:02:44;7.35;;;2.67;;
9860;SDS011;4969;52.304;4.968;2023-07-31T10:05:12;8.25;;;2.80;;
9860;SDS011;4969;52.304;4.968;2023-07-31T10:07:40;5.90;;;2.42;;
9860;SDS011;4969;52.304;4.968;2023-07-31T10:10:09;4.43;;;2.58;;
9860;SDS011;4969;52.304;4.968;2023-07-31T10:12:36;7.30;;;2.75;;
9860;SDS011;4969;52.304;4.968;2023-07-31T10:15:06;7.05;;;2.90;;
9860;SDS011;4969;52.304;4.968;2023-07-31T10:17:34;6.53;;;3.03;;
9860;SDS011;4969;52.304;4.968;2023-07-31T10:20:02;5.70;;;2.55;;
9860;SDS011;4969;52.304;4.968;2023-07-31T10:22:30;7.07;;;2.63;;
9860;SDS011;4969;52.304;4.968;2023-07-31T10:24:57;9.60;;;2.92;;
9860;SDS011;4969;52.304;4.968;2023-07-31T10:27:25;5.65;;;2.78;;
9860;SDS011;4969;52.304;4.968;2023-07-31T10:29:52;6.35;;;2.45;;
9860;SDS011;4969;52.304;4.968;2023-07-31T10:32:21;6.25;;;2.10;;
9860;SDS011;4969;52.304;4.968;2023-07-31T10:34:49;6.93;;;2.75;;
9860;SDS011;4969;52.304;4.968;2023-07-31T10:37:23;5.47;;;2.40;;
9860;SDS011;4969;52.304;4.968;2023-07-31T10:39:58;5.85;;;2.53;;
9860;SDS011;4969;52.304;4.968;2023-07-31T10:42:29;3.88;;;2.25;;
9860;SDS011;4969;52.304;4.968;2023-07-31T10:44:58;5.40;;;2.33;;
9860;SDS011;4969;52.304;4.968;2023-07-31T10:47:26;5.25;;;2.50;;
9860;SDS011;4969;52.304;4.968;2023-07-31T10:49:59;5.57;;;2.45;;
9860;SDS011;4969;52.304;4.968;2023-07-31T10:52:37;6.85;;;2.92;;
9860;SDS011;4969;52.304;4.968;2023-07-31T10:55:14;5.10;;;2.70;;
9860;SDS011;4969;52.304;4.968;2023-07-31T10:57:54;6.82;;;2.78;;
9860;SDS011;4969;52.304;4.968;2023-07-31T11:00:22;7.80;;;2.88;;
9860;SDS011;4969;52.304;4.968;2023-07-31T11:03:05;9.20;;;2.97;;
9860;SDS011;4969;52.304;4.968;2023-07-31T11:05:43;7.90;;;2.60;;
9860;SDS011;4969;52.304;4.968;2023-07-31T11:08:12;10.27;;;3.53;;
9860;SDS011;4969;52.304;4.968;2023-07-31T11:10:40;5.35;;;2.58;;
9860;SDS011;4969;52.304;4.968;2023-07-31T11:13:06;7.10;;;2.63;;
9860;SDS011;4969;52.304;4.968;2023-07-31T11:15:33;7.10;;;3.13;;
9860;SDS011;4969;52.304;4.968;2023-07-31T11:18:00;5.95;;;2.67;;
9860;SDS011;4969;52.304;4.968;2023-07-31T11:20:30;8.20;;;3.13;;
9860;SDS011;4969;52.304;4.968;2023-07-31T11:22:58;3.85;;;2.33;;
9860;SDS011;4969;52.304;4.968;2023-07-31T11:25:26;5.22;;;2.40;;
9860;SDS011;4969;52.304;4.968;2023-07-31T11:27:55;4.97;;;2.28;;
9860;SDS011;4969;52.304;4.968;2023-07-31T11:30:22;4.97;;;2.58;;
9860;SDS011;4969;52.304;4.968;2023-07-31T11:32:48;5.47;;;2.63;;
9860;SDS011;4969;52.304;4.968;2023-07-31T11:35:16;4.97;;;2.47;;
9860;SDS011;4969;52.304;4.968;2023-07-31T11:37:44;7.00;;;3.00;;
9860;SDS011;4969;52.304;4.968;2023-07-31T11:40:11;6.25;;;2.72;;
9860;SDS011;4969;52.304;4.968;2023-07-31T11:42:38;7.25;;;2.70;;
9860;SDS011;4969;52.304;4.968;2023-07-31T11:45:05;7.65;;;3.00;;
9860;SDS011;4969;52.304;4.968;2023-07-31T11:47:32;6.57;;;2.67;;
9860;SDS011;4969;52.304;4.968;2023-07-31T11:50:00;6.80;;;2.58;;
9860;SDS011;4969;52.304;4.968;2023-07-31T11:52:27;7.60;;;2.67;;
9860;SDS011;4969;52.304;4.968;2023-07-31T11:54:57;7.30;;;2.85;;
9860;SDS011;4969;52.304;4.968;2023-07-31T11:57:24;5.97;;;2.30;;
9860;SDS011;4969;52.304;4.968;2023-07-31T11:59:52;5.22;;;2.45;;
9860;SDS011;4969;52.304;4.968;2023-07-31T12:02:19;5.13;;;2.28;;
9860;SDS011;4969;52.304;4.968;2023-07-31T12:04:49;5.75;;;2.38;;
9860;SDS011;4969;52.304;4.968;2023-07-31T12:07:16;7.60;;;2.70;;
9860;SDS011;4969;52.304;4.968;2023-07-31T12:09:50;5.43;;;2.40;;
9860;SDS011;4969;52.304;4.968;2023-07-31T12:12:20;6.18;;;2.70;;
9860;SDS011;4969;52.304;4.968;2023-07-31T12:14:47;5.60;;;2.28;;
9860;SDS011;4969;52.304;4.968;2023-07-31T12:17:16;4.28;;;2.13;;
9860;SDS011;4969;52.304;4.968;2023-07-31T12:19:45;2.97;;;2.17;;
9860;SDS011;4969;52.304;4.968;2023-07-31T12:22:12;4.60;;;2.60;;
9860;SDS011;4969;52.304;4.968;2023-07-31T12:24:39;5.78;;;2.15;;
9860;SDS011;4969;52.304;4.968;2023-07-31T12:27:10;5.53;;;2.60;;
9860;SDS011;4969;52.304;4.968;2023-07-31T12:29:39;4.28;;;2.33;;
9860;SDS011;4969;52.304;4.968;2023-07-31T12:32:18;5.63;;;2.60;;
9860;SDS011;4969;52.304;4.968;2023-07-31T12:34:46;4.80;;;2.38;;
9860;SDS011;4969;52.304;4.968;2023-07-31T12:37:12;3.92;;;2.38;;
9860;SDS011;4969;52.304;4.968;2023-07-31T12:39:39;6.15;;;2.63;;
9860;SDS011;4969;52.304;4.968;2023-07-31T12:42:06;6.45;;;2.58;;
9860;SDS011;4969;52.304;4.968;2023-07-31T12:44:32;5.57;;;2.47;;
9860;SDS011;4969;52.304;4.968;2023-07-31T12:47:01;8.38;;;2.55;;
9860;SDS011;4969;52.304;4.968;2023-07-31T12:49:29;7.93;;;2.40;;
9860;SDS011;4969;52.304;4.968;2023-07-31T12:51:55;5.18;;;2.45;;
9860;SDS011;4969;52.304;4.968;2023-07-31T12:54:22;6.68;;;2.47;;
9860;SDS011;4969;52.304;4.968;2023-07-31T12:56:48;6.40;;;2.45;;
9860;SDS011;4969;52.304;4.968;2023-07-31T12:59:15;5.28;;;2.20;;
9860;SDS011;4969;52.304;4.968;2023-07-31T13:01:42;5.28;;;2.17;;
9860;SDS011;4969;52.304;4.968;2023-07-31T13:04:10;5.18;;;2.30;;
9860;SDS011;4969;52.304;4.968;2023-07-31T13:06:36;6.82;;;2.05;;
9860;SDS011;4969;52.304;4.968;2023-07-31T13:09:03;3.63;;;2.20;;
9860;SDS011;4969;52.304;4.968;2023-07-31T13:11:29;5.55;;;2.22;;
9860;SDS011;4969;52.304;4.968;2023-07-31T13:13:56;5.70;;;2.58;;
9860;SDS011;4969;52.304;4.968;2023-07-31T13:16:22;4.68;;;2.10;;
9860;SDS011;4969;52.304;4.968;2023-07-31T13:18:49;6.57;;;2.35;;
9860;SDS011;4969;52.304;4.968;2023-07-31T13:21:18;3.40;;;2.17;;
9860;SDS011;4969;52.304;4.968;2023-07-31T13:23:46;5.07;;;2.20;;
9860;SDS011;4969;52.304;4.968;2023-07-31T13:26:13;5.57;;;2.42;;
9860;SDS011;4969;52.304;4.968;2023-07-31T13:28:39;5.13;;;2.30;;
9860;SDS011;4969;52.304;4.968;2023-07-31T13:31:06;5.10;;;2.30;;
9860;SDS011;4969;52.304;4.968;2023-07-31T13:33:33;5.32;;;2.60;;
9860;SDS011;4969;52.304;4.968;2023-07-31T13:35:59;6.95;;;2.33;;
9860;SDS011;4969;52.304;4.968;2023-07-31T13:38:27;6.03;;;2.35;;
9860;SDS011;4969;52.304;4.968;2023-07-31T13:40:56;4.03;;;2.10;;
9860;SDS011;4969;52.304;4.968;2023-07-31T13:43:23;3.65;;;1.98;;
9860;SDS011;4969;52.304;4.968;2023-07-31T13:45:50;6.03;;;2.15;;
9860;SDS011;4969;52.304;4.968;2023-07-31T13:48:17;4.43;;;2.15;;
9860;SDS011;4969;52.304;4.968;2023-07-31T13:50:43;4.78;;;2.10;;
9860;SDS011;4969;52.304;4.968;2023-07-31T13:53:10;3.25;;;1.98;;
9860;SDS011;4969;52.304;4.968;2023-07-31T13:55:38;3.25;;;1.90;;
9860;SDS011;4969;52.304;4.968;2023-07-31T13:58:04;4.03;;;1.77;;
9860;SDS011;4969;52.304;4.968;2023-07-31T14:00:31;2.67;;;1.98;;
9860;SDS011;4969;52.304;4.968;2023-07-31T14:02:58;2.58;;;1.73;;
9860;SDS011;4969;52.304;4.968;2023-07-31T14:05:24;2.80;;;1.38;;
9860;SDS011;4969;52.304;4.968;2023-07-31T14:07:51;2.42;;;1.50;;
9860;SDS011;4969;52.304;4.968;2023-07-31T14:10:17;1.67;;;1.40;;
9860;SDS011;4969;52.304;4.968;2023-07-31T14:12:46;2.63;;;1.67;;
9860;SDS011;4969;52.304;4.968;2023-07-31T14:15:12;3.40;;;2.03;;
9860;SDS011;4969;52.304;4.968;2023-07-31T14:17:39;1.50;;;1.40;;
9860;SDS011;4969;52.304;4.968;2023-07-31T14:20:06;2.08;;;1.48;;
9860;SDS011;4969;52.304;4.968;2023-07-31T14:22:33;3.80;;;1.75;;
9860;SDS011;4969;52.304;4.968;2023-07-31T14:25:00;4.75;;;1.98;;
9860;SDS011;4969;52.304;4.968;2023-07-31T14:27:27;2.70;;;2.10;;
9860;SDS011;4969;52.304;4.968;2023-07-31T14:29:55;3.65;;;2.00;;
9860;SDS011;4969;52.304;4.968;2023-07-31T14:32:22;5.60;;;2.33;;
9860;SDS011;4969;52.304;4.968;2023-07-31T14:34:50;7.15;;;2.20;;
9860;SDS011;4969;52.304;4.968;2023-07-31T14:37:16;2.95;;;2.00;;
9860;SDS011;4969;52.304;4.968;2023-07-31T14:39:43;4.97;;;2.30;;
9860;SDS011;4969;52.304;4.968;2023-07-31T14:42:10;5.63;;;2.25;;
9860;SDS011;4969;52.304;4.968;2023-07-31T14:44:36;6.28;;;2.20;;
9860;SDS011;4969;52.304;4.968;2023-07-31T14:47:05;4.20;;;1.80;;
9860;SDS011;4969;52.304;4.968;2023-07-31T14:49:31;5.40;;;2.35;;
9860;SDS011;4969;52.304;4.968;2023-07-31T14:51:58;3.85;;;2.05;;
9860;SDS011;4969;52.304;4.968;2023-07-31T14:54:24;6.55;;;2.22;;
9860;SDS011;4969;52.304;4.968;2023-07-31T14:56:51;5.57;;;2.15;;
9860;SDS011;4969;52.304;4.968;2023-07-31T14:59:18;3.10;;;1.73;;
9860;SDS011;4969;52.304;4.968;2023-07-31T15:01:44;3.92;;;2.00;;
9860;SDS011;4969;52.304;4.968;2023-07-31T15:04:12;4.68;;;2.08;;
9860;SDS011;4969;52.304;4.968;2023-07-31T15:06:39;4.07;;;1.80;;
9860;SDS011;4969;52.304;4.968;2023-07-31T15:09:05;4.28;;;1.77;;
9860;SDS011;4969;52.304;4.968;2023-07-31T15:11:32;4.88;;;1.85;;
9860;SDS011;4969;52.304;4.968;2023-07-31T15:13:58;3.60;;;1.80;;
9860;SDS011;4969;52.304;4.968;2023-07-31T15:16:24;4.15;;;1.55;;